Time;durP1;ratioP1;P1;durP2;ratioP2;P2;SDS_P1;SDS_P2;PMS_P1;PMS_P2;Temp;Humidity;BMP_temperature;BMP_pressure;BME280_temperature;BME280_humidity;BME280_pressure;Samples;Min_cycle;Max_cycle;Signal;HPM_P1;HPM_P2
2020/12/07 00:04:39;;;;;;;27.30;12.13;;;4.10;99.90;;;;;;10229590;28;20109;-67
2020/12/07 00:09:40;;;;;;;31.05;12.07;;;4.10;99.90;;;;;;10226124;28;20043;-67
2020/12/07 00:14:41;;;;;;;30.65;11.35;;;4.10;99.90;;;;;;10236106;28;20071;-67
2020/12/07 00:19:43;;;;;;;28.65;11.00;;;4.10;99.90;;;;;;10233189;28;20055;-67
2020/12/07 00:24:44;;;;;;;27.35;11.32;;;4.10;99.90;;;;;;10225326;28;20406;-67
2020/12/07 00:29:45;;;;;;;23.92;8.85;;;4.10;99.90;;;;;;10233625;28;20051;-67
2020/12/07 00:34:47;;;;;;;21.27;8.63;;;4.10;99.90;;;;;;10236766;28;20058;-67
2020/12/07 00:39:48;;;;;;;26.33;10.10;;;4.00;99.90;;;;;;10237417;28;20493;-67
2020/12/07 00:44:50;;;;;;;24.10;8.55;;;4.00;99.90;;;;;;10238114;28;20054;-67
2020/12/07 00:49:51;;;;;;;21.05;9.02;;;4.00;99.90;;;;;;10231758;28;20134;-67
2020/12/07 00:54:52;;;;;;;21.17;8.25;;;4.00;99.90;;;;;;10232261;28;20046;-67
2020/12/07 00:59:53;;;;;;;19.90;7.80;;;3.90;99.90;;;;;;10232670;28;20051;-67
2020/12/07 01:04:54;;;;;;;18.38;7.63;;;3.90;99.90;;;;;;10237756;28;20449;-67
2020/12/07 01:09:56;;;;;;;20.58;8.35;;;3.90;99.90;;;;;;10237410;28;20046;-67
2020/12/07 01:14:57;;;;;;;20.63;7.88;;;3.90;99.90;;;;;;10229498;28;20051;-67
2020/12/07 01:19:59;;;;;;;18.10;6.55;;;3.90;99.90;;;;;;10232801;28;20054;-67
2020/12/07 01:25:00;;;;;;;29.33;9.18;;;3.90;99.90;;;;;;10232905;28;20579;-67
2020/12/07 01:30:02;;;;;;;27.70;9.93;;;3.90;99.90;;;;;;10221916;28;20046;-67
2020/12/07 01:35:04;;;;;;;20.48;7.18;;;4.00;99.90;;;;;;10230668;28;20083;-67
2020/12/07 01:40:05;;;;;;;10.98;5.32;;;4.00;99.90;;;;;;10229991;28;20142;-67
2020/12/07 01:45:07;;;;;;;9.85;5.05;;;4.00;99.90;;;;;;10224399;28;20504;-67
2020/12/07 01:50:08;;;;;;;11.65;5.05;;;3.90;99.90;;;;;;10238792;28;20054;-67
2020/12/07 01:55:10;;;;;;;10.50;5.25;;;3.90;99.90;;;;;;10228840;28;20142;-67
2020/12/07 02:00:12;;;;;;;10.57;5.00;;;3.90;99.90;;;;;;10225448;28;20074;-67
2020/12/07 02:05:14;;;;;;;11.43;5.10;;;3.80;99.90;;;;;;10265130;23;20057;-66
2020/12/07 02:10:15;;;;;;;13.05;5.50;;;3.90;99.90;;;;;;10250407;28;20047;-66
2020/12/07 02:15:16;;;;;;;11.50;5.28;;;4.00;99.90;;;;;;10253008;28;20496;-66
2020/12/07 02:20:17;;;;;;;13.05;6.90;;;3.90;99.90;;;;;;10254622;28;20133;-66
2020/12/07 02:25:19;;;;;;;18.08;6.13;;;3.90;99.90;;;;;;10252900;28;20537;-66
2020/12/07 02:30:22;;;;;;;14.05;6.60;;;4.00;99.90;;;;;;10255599;28;20889;-66
2020/12/07 02:35:24;;;;;;;12.52;6.75;;;3.90;99.90;;;;;;10252311;28;20057;-66
2020/12/07 02:40:25;;;;;;;11.23;5.65;;;3.90;99.90;;;;;;10258606;28;20046;-66
2020/12/07 02:45:26;;;;;;;12.50;6.28;;;3.80;99.90;;;;;;10256354;28;20987;-67
2020/12/07 02:50:27;;;;;;;12.48;5.65;;;3.80;99.90;;;;;;10254479;28;20058;-66
2020/12/07 02:55:28;;;;;;;6.43;3.70;;;3.80;99.90;;;;;;10259717;28;20065;-66
2020/12/07 03:00:33;;;;;;;8.70;4.47;;;3.80;99.90;;;;;;10264098;28;20058;-66
2020/12/07 03:05:35;;;;;;;8.70;4.53;;;3.80;99.90;;;;;;10245773;28;20625;-66
2020/12/07 03:10:37;;;;;;;9.52;4.72;;;3.80;99.90;;;;;;10246965;28;20039;-66
2020/12/07 03:15:38;;;;;;;10.18;5.50;;;3.70;99.90;;;;;;10255653;28;20057;-66
2020/12/07 03:20:40;;;;;;;9.93;5.00;;;3.70;99.90;;;;;;10253440;28;20046;-66
2020/12/07 03:25:42;;;;;;;11.48;5.40;;;3.80;99.90;;;;;;10249622;28;20070;-66
2020/12/07 03:30:43;;;;;;;8.65;4.55;;;3.80;99.90;;;;;;10250204;28;20040;-66
2020/12/07 03:35:44;;;;;;;9.18;5.13;;;3.80;99.90;;;;;;10251060;28;20039;-66
2020/12/07 03:40:45;;;;;;;7.93;5.15;;;3.80;99.90;;;;;;10246466;28;20054;-66
2020/12/07 03:45:47;;;;;;;9.43;4.97;;;3.70;99.90;;;;;;10249696;28;20050;-66
2020/12/07 03:50:48;;;;;;;12.32;5.60;;;3.70;99.90;;;;;;10242641;28;20050;-66
2020/12/07 03:55:49;;;;;;;14.38;5.72;;;3.70;99.90;;;;;;10253009;28;20061;-66
2020/12/07 04:00:50;;;;;;;12.38;5.70;;;3.70;99.90;;;;;;10253115;28;20070;-66
2020/12/07 04:05:58;;;;;;;15.50;6.88;;;3.80;99.90;;;;;;10251607;28;20043;-66
2020/12/07 04:10:59;;;;;;;14.13;7.25;;;3.80;99.90;;;;;;10260880;28;20043;-66
2020/12/07 04:16:04;;;;;;;20.60;7.57;;;3.80;99.90;;;;;;10242785;28;20492;-66
2020/12/07 04:21:05;;;;;;;25.00;9.50;;;3.80;99.90;;;;;;10232454;28;20051;-66
2020/12/07 04:26:06;;;;;;;23.48;9.98;;;3.80;99.90;;;;;;10252494;28;20078;-66
2020/12/07 04:31:08;;;;;;;22.02;9.95;;;3.90;99.90;;;;;;10239910;28;20055;-66
2020/12/07 04:36:09;;;;;;;23.08;10.48;;;3.90;99.90;;;;;;10243854;28;20058;-67
2020/12/07 04:41:10;;;;;;;25.23;10.10;;;3.90;99.90;;;;;;10240781;28;20051;-66
2020/12/07 04:46:13;;;;;;;32.40;11.32;;;3.90;99.90;;;;;;10248766;28;20138;-66
2020/12/07 04:51:15;;;;;;;27.15;10.88;;;3.90;99.90;;;;;;10243515;28;20051;-66
2020/12/07 04:56:16;;;;;;;24.67;9.85;;;4.00;99.90;;;;;;10253244;28;20146;-66
2020/12/07 05:01:17;;;;;;;31.15;10.35;;;4.00;99.90;;;;;;10237264;28;20055;-66
2020/12/07 05:06:19;;;;;;;27.80;10.35;;;4.00;99.90;;;;;;10244273;28;20078;-66
2020/12/07 05:11:20;;;;;;;21.77;9.60;;;4.00;99.90;;;;;;10249784;28;20058;-66
2020/12/07 05:16:24;;;;;;;25.73;10.15;;;4.10;99.90;;;;;;10270097;28;20059;-66
2020/12/07 05:21:25;;;;;;;22.50;10.18;;;4.20;99.90;;;;;;10251206;28;20507;-66
2020/12/07 05:26:28;;;;;;;32.47;11.77;;;4.20;99.90;;;;;;10241997;28;20052;-66
2020/12/07 05:31:35;;;;;;;30.98;12.25;;;4.20;99.90;;;;;;10241967;28;20121;-67
2020/12/07 05:36:36;;;;;;;34.72;12.57;;;4.20;99.90;;;;;;10241920;28;20057;-67
2020/12/07 05:41:38;;;;;;;38.17;13.88;;;4.20;99.90;;;;;;10251328;28;20078;-67
2020/12/07 05:46:41;;;;;;;30.08;12.73;;;4.20;99.90;;;;;;10254957;28;20061;-67
2020/12/07 05:51:49;;;;;;;33.15;12.65;;;4.20;99.90;;;;;;10242513;28;20051;-66
2020/12/07 05:56:54;;;;;;;48.92;16.55;;;4.20;99.90;;;;;;10242156;28;20476;-67
2020/12/07 06:01:58;;;;;;;33.45;12.80;;;4.20;99.90;;;;;;10243291;28;20055;-67
2020/12/07 06:07:02;;;;;;;33.75;12.48;;;4.20;99.90;;;;;;10254553;28;20860;-67
2020/12/07 06:12:11;;;;;;;35.83;13.55;;;4.20;99.90;;;;;;10252325;28;20503;-66
2020/12/07 06:17:22;;;;;;;31.10;12.50;;;4.20;99.90;;;;;;10250695;28;20051;-66
2020/12/07 06:22:24;;;;;;;32.85;12.68;;;4.20;99.90;;;;;;10260239;28;20058;-66
2020/12/07 06:27:25;;;;;;;27.30;12.38;;;4.20;99.90;;;;;;10251261;28;20058;-66
2020/12/07 06:32:50;;;;;;;28.80;12.38;;;4.30;99.90;;;;;;10255807;28;20112;-66
2020/12/07 06:37:51;;;;;;;29.95;12.57;;;4.20;99.90;;;;;;10213339;28;20057;-66
2020/12/07 06:42:53;;;;;;;27.83;12.35;;;4.20;99.90;;;;;;10260805;28;20055;-66
2020/12/07 06:47:54;;;;;;;31.52;13.75;;;4.10;99.90;;;;;;10259798;28;20534;-66
2020/12/07 06:52:58;;;;;;;28.75;12.43;;;4.10;99.90;;;;;;10258967;28;20050;-65
2020/12/07 06:57:59;;;;;;;30.88;12.75;;;4.10;99.90;;;;;;10258353;28;20063;-66
2020/12/07 07:03:00;;;;;;;32.85;13.15;;;4.20;99.90;;;;;;10255878;28;20125;-66
2020/12/07 07:08:03;;;;;;;27.58;13.35;;;4.10;99.90;;;;;;10262202;28;20095;-68
2020/12/07 07:13:07;;;;;;;31.17;13.75;;;4.10;99.90;;;;;;10258861;28;20101;-68
2020/12/07 07:18:08;;;;;;;29.27;12.38;;;4.10;99.90;;;;;;10256014;28;20560;-68
2020/12/07 07:23:10;;;;;;;38.20;14.35;;;4.10;99.90;;;;;;10255920;28;20140;-67
2020/12/07 07:28:14;;;;;;;24.77;11.57;;;4.10;99.90;;;;;;10268492;28;20062;-68
2020/12/07 07:33:15;;;;;;;26.25;11.30;;;4.10;99.90;;;;;;10256312;28;20531;-68
2020/12/07 07:38:16;;;;;;;29.67;11.00;;;4.20;99.90;;;;;;10259487;28;20043;-68
2020/12/07 07:43:25;;;;;;;23.77;10.75;;;4.10;99.90;;;;;;10259485;28;20047;-68
2020/12/07 07:48:44;;;;;;;24.67;11.40;;;4.30;99.90;;;;;;10255567;28;20132;-68
2020/12/07 08:06:18;;;;;;;33.13;12.75;;;4.30;99.90;;;;;;10249006;28;20137;-67
2020/12/07 08:16:21;;;;;;;31.67;13.73;;;4.40;99.90;;;;;;10205542;28;20078;-72
2020/12/07 08:21:26;;;;;;;31.33;14.07;;;4.40;99.90;;;;;;10207329;28;20050;-71
2020/12/07 08:26:28;;;;;;;50.50;14.75;;;4.50;99.90;;;;;;10251373;28;20078;-69
2020/12/07 08:31:35;;;;;;;44.58;17.15;;;4.50;99.90;;;;;;10255462;28;20061;-69
2020/12/07 08:36:36;;;;;;;46.25;17.05;;;4.50;99.90;;;;;;10248786;28;20561;-69
2020/12/07 08:41:38;;;;;;;60.08;19.90;;;4.50;99.90;;;;;;10253176;28;20086;-69
2020/12/07 08:46:39;;;;;;;58.75;20.52;;;4.60;99.90;;;;;;10258876;28;20062;-69
2020/12/07 08:51:40;;;;;;;39.40;17.70;;;4.60;99.90;;;;;;10266796;28;20046;-69
2020/12/07 08:56:41;;;;;;;39.25;15.40;;;4.60;99.90;;;;;;10253492;28;20050;-69
2020/12/07 09:01:43;;;;;;;29.92;14.88;;;4.60;99.90;;;;;;10253136;28;20505;-71
2020/12/07 09:06:47;;;;;;;28.23;12.63;;;4.50;99.90;;;;;;10269221;28;20057;-71
2020/12/07 09:11:48;;;;;;;39.92;15.00;;;4.60;99.90;;;;;;10252795;28;20137;-70
2020/12/07 09:16:50;;;;;;;53.05;16.70;;;4.50;99.90;;;;;;10252922;28;20054;-69
2020/12/07 09:21:55;;;;;;;47.83;14.38;;;4.60;99.90;;;;;;10253924;28;20046;-69
2020/12/07 09:26:56;;;;;;;34.30;12.35;;;4.60;99.90;;;;;;10249006;28;20137;-69
2020/12/07 09:31:57;;;;;;;28.20;13.93;;;4.80;99.90;;;;;;10249631;28;20057;-67
2020/12/07 09:36:58;;;;;;;23.50;11.23;;;4.70;99.90;;;;;;10260173;28;20112;-67
2020/12/07 09:42:00;;;;;;;27.58;11.57;;;4.80;99.90;;;;;;10261615;28;20145;-69
2020/12/07 09:47:01;;;;;;;76.38;15.10;;;4.70;99.90;;;;;;10260051;28;20061;-71
2020/12/07 09:52:02;;;;;;;38.03;14.55;;;4.80;99.90;;;;;;10254181;28;20051;-73
2020/12/07 09:57:05;;;;;;;79.50;20.17;;;4.90;99.90;;;;;;10260900;28;20062;-71
2020/12/07 10:02:07;;;;;;;37.40;11.93;;;5.00;99.90;;;;;;10265086;28;20059;-71
2020/12/07 10:07:08;;;;;;;18.30;10.48;;;5.10;99.90;;;;;;10258307;28;20082;-71
2020/12/07 10:12:10;;;;;;;20.60;10.20;;;5.20;99.90;;;;;;10262066;28;20051;-70
2020/12/07 10:17:11;;;;;;;35.55;11.45;;;5.40;99.90;;;;;;10259357;28;20051;-70
2020/12/07 10:22:12;;;;;;;26.55;11.52;;;5.60;99.90;;;;;;10262640;28;20043;-70
2020/12/07 10:27:13;;;;;;;19.42;9.98;;;5.40;99.90;;;;;;10260292;28;20073;-71
2020/12/07 10:32:14;;;;;;;23.45;10.77;;;5.20;99.90;;;;;;10256426;28;20054;-69
2020/12/07 10:37:17;;;;;;;18.08;9.10;;;5.30;99.90;;;;;;10259944;28;20074;-68
2020/12/07 10:42:18;;;;;;;21.27;9.57;;;5.30;99.90;;;;;;10258642;28;20065;-70
2020/12/07 10:47:20;;;;;;;20.60;11.63;;;5.40;99.90;;;;;;10259930;28;20173;-68
2020/12/07 10:52:21;;;;;;;23.38;11.77;;;5.30;99.90;;;;;;10259950;28;20062;-64
2020/12/07 10:57:23;;;;;;;16.10;9.43;;;5.40;99.90;;;;;;10270821;28;20527;-66
2020/12/07 11:02:27;;;;;;;16.20;10.15;;;5.40;99.90;;;;;;10255396;28;20053;-67
2020/12/07 11:07:29;;;;;;;16.55;9.32;;;5.60;99.90;;;;;;10260227;28;20047;-67
2020/12/07 11:12:30;;;;;;;18.48;10.18;;;5.80;99.90;;;;;;10262697;28;20055;-64
2020/12/07 11:17:32;;;;;;;19.40;10.10;;;5.60;99.90;;;;;;10257536;28;20058;-64
2020/12/07 11:22:33;;;;;;;14.88;8.75;;;5.50;99.90;;;;;;10257041;28;20054;-64
2020/12/07 11:27:34;;;;;;;15.45;9.20;;;5.40;99.90;;;;;;10254727;28;20056;-64
2020/12/07 11:32:35;;;;;;;17.92;8.93;;;5.50;99.90;;;;;;10258885;28;20668;-64
2020/12/07 11:37:38;;;;;;;16.80;9.20;;;5.60;99.90;;;;;;10261635;28;20066;-64
2020/12/07 11:47:41;;;;;;;16.42;9.05;;;5.60;99.90;;;;;;10251629;28;20071;-64
2020/12/07 11:52:43;;;;;;;16.40;8.60;;;5.50;99.90;;;;;;10259481;28;20038;-64
2020/12/07 11:57:45;;;;;;;15.32;8.52;;;5.60;99.90;;;;;;10253559;28;20062;-64
2020/12/07 12:02:46;;;;;;;14.90;8.38;;;5.40;99.90;;;;;;10254055;28;20071;-64
2020/12/07 12:07:47;;;;;;;15.82;8.38;;;5.40;99.90;;;;;;10256754;28;20154;-64
2020/12/07 12:12:49;;;;;;;17.90;9.98;;;5.50;99.90;;;;;;10261295;28;20067;-64
2020/12/07 12:17:50;;;;;;;20.20;8.80;;;5.80;99.90;;;;;;10256130;28;20062;-64
2020/12/07 12:22:51;;;;;;;20.50;9.82;;;5.80;99.90;;;;;;10254466;28;20046;-64
2020/12/07 12:27:52;;;;;;;17.02;9.77;;;5.80;99.90;;;;;;10257443;28;20047;-64
2020/12/07 12:32:53;;;;;;;20.50;9.77;;;5.60;99.90;;;;;;10256181;28;20138;-64
2020/12/07 12:37:54;;;;;;;22.48;11.73;;;5.50;99.90;;;;;;10258849;28;20054;-64
2020/12/07 12:42:56;;;;;;;69.63;16.00;;;5.50;99.90;;;;;;10253171;28;20049;-64
2020/12/07 12:47:57;;;;;;;36.80;13.38;;;5.60;99.90;;;;;;10253281;28;20050;-64
2020/12/07 12:52:58;;;;;;;28.10;13.23;;;5.50;99.90;;;;;;10257714;28;20669;-64
2020/12/07 12:57:59;;;;;;;22.65;12.43;;;5.60;99.90;;;;;;10254874;28;20159;-64
2020/12/07 13:03:01;;;;;;;41.90;14.68;;;5.50;99.90;;;;;;10259170;28;20562;-64
2020/12/07 13:08:02;;;;;;;33.63;13.23;;;5.60;99.90;;;;;;10252618;28;20059;-64
2020/12/07 13:13:03;;;;;;;23.50;11.95;;;5.60;99.90;;;;;;10256622;28;20170;-63
2020/12/07 13:18:08;;;;;;;23.23;13.57;;;5.50;99.90;;;;;;10261059;28;20047;-64
2020/12/07 13:28:13;;;;;;;22.70;10.75;;;5.60;99.90;;;;;;10254325;28;20101;-64
2020/12/07 13:33:15;;;;;;;24.05;11.00;;;5.80;99.90;;;;;;10257943;28;20062;-63
2020/12/07 13:38:17;;;;;;;25.83;10.93;;;5.80;99.90;;;;;;10258570;28;20054;-64
2020/12/07 13:43:18;;;;;;;26.95;12.60;;;5.80;99.90;;;;;;10259793;28;20381;-64
2020/12/07 13:48:19;;;;;;;20.25;10.25;;;5.80;99.90;;;;;;10254569;28;20638;-64
2020/12/07 13:53:21;;;;;;;28.92;12.40;;;5.70;99.90;;;;;;10252323;28;20067;-63
2020/12/07 13:58:22;;;;;;;18.98;9.75;;;5.60;99.90;;;;;;10255286;28;20061;-64
2020/12/07 14:03:29;;;;;;;13.65;8.77;;;5.60;99.90;;;;;;10271645;28;20046;-63
2020/12/07 14:08:31;;;;;;;18.08;9.60;;;5.50;99.90;;;;;;10263872;28;20050;-63
2020/12/07 14:13:33;;;;;;;16.80;8.68;;;5.50;99.90;;;;;;10247906;28;20057;-63
2020/12/07 14:18:38;;;;;;;14.38;7.10;;;5.40;99.90;;;;;;10249312;28;20046;-63
2020/12/07 14:23:45;;;;;;;10.80;6.88;;;5.40;99.90;;;;;;10248291;28;20047;-63
2020/12/07 14:44:30;;;;;;;15.00;9.23;;;5.30;99.90;;;;;;10260080;28;20057;-64
2020/12/07 14:49:31;;;;;;;12.35;7.13;;;5.30;99.90;;;;;;10257155;28;20512;-64
2020/12/07 14:54:51;;;;;;;9.93;6.25;;;5.30;99.90;;;;;;10279668;28;20065;-64
2020/12/07 15:15:32;;;;;;;17.75;6.18;;;5.30;99.90;;;;;;10260955;28;20043;-64
2020/12/07 15:20:33;;;;;;;9.55;4.47;;;5.30;99.90;;;;;;10257357;28;20170;-64
2020/12/07 15:25:35;;;;;;;10.93;5.53;;;5.30;99.90;;;;;;10253913;28;20058;-64
2020/12/07 15:30:36;;;;;;;15.93;6.18;;;5.30;99.90;;;;;;10261709;28;20057;-64
2020/12/07 15:35:37;;;;;;;14.77;6.57;;;5.20;99.90;;;;;;10255901;28;20043;-64
2020/12/07 15:40:38;;;;;;;13.70;7.53;;;5.30;99.90;;;;;;10262903;28;20055;-65
2020/12/07 15:45:40;;;;;;;11.80;6.93;;;5.20;99.90;;;;;;10259631;28;20507;-64
2020/12/07 15:50:42;;;;;;;16.77;7.85;;;5.30;99.90;;;;;;10257747;28;20059;-64
2020/12/07 15:55:43;;;;;;;12.70;8.10;;;5.30;99.90;;;;;;10258686;28;20066;-64
2020/12/07 16:00:44;;;;;;;13.85;8.02;;;5.30;99.90;;;;;;10246254;28;20062;-64
2020/12/07 16:05:46;;;;;;;12.20;7.72;;;5.10;99.90;;;;;;10257815;28;20043;-64
2020/12/07 16:10:47;;;;;;;16.27;8.73;;;5.00;99.90;;;;;;10255633;28;20489;-64
2020/12/07 16:15:48;;;;;;;12.07;8.40;;;4.90;99.90;;;;;;10256939;28;20065;-66
2020/12/07 16:20:49;;;;;;;17.33;10.43;;;4.90;99.90;;;;;;10256576;28;20741;-66
2020/12/07 16:25:51;;;;;;;17.75;11.18;;;4.80;99.90;;;;;;10256258;28;20117;-66
2020/12/07 16:30:52;;;;;;;17.52;10.18;;;4.80;99.90;;;;;;10256731;28;20050;-66
2020/12/07 16:35:53;;;;;;;18.38;10.63;;;4.80;99.90;;;;;;10260681;28;20078;-66
2020/12/07 16:40:55;;;;;;;18.95;10.63;;;4.80;99.90;;;;;;10247701;28;20057;-65
2020/12/07 16:45:56;;;;;;;17.55;10.52;;;4.80;99.90;;;;;;10257723;28;20715;-65
2020/12/07 16:50:57;;;;;;;20.05;11.85;;;4.80;99.90;;;;;;10255507;28;20061;-65
2020/12/07 16:56:04;;;;;;;17.48;11.15;;;4.90;99.90;;;;;;10249647;28;20059;-65
2020/12/07 17:01:06;;;;;;;21.33;12.95;;;4.80;99.90;;;;;;10256405;28;20146;-65
2020/12/07 17:06:07;;;;;;;21.48;12.95;;;4.80;99.90;;;;;;10256735;28;20047;-64
2020/12/07 17:11:10;;;;;;;19.02;12.10;;;4.80;99.90;;;;;;10257169;28;20050;-65
2020/12/07 17:16:13;;;;;;;21.67;12.25;;;4.70;99.90;;;;;;10253350;28;20086;-64
2020/12/07 17:21:15;;;;;;;24.10;13.45;;;4.70;99.90;;;;;;10252509;28;20046;-64
2020/12/07 17:26:16;;;;;;;23.50;14.15;;;4.70;99.90;;;;;;10250666;28;20797;-64
2020/12/07 17:31:19;;;;;;;22.65;14.35;;;4.60;99.90;;;;;;10248169;28;20043;-65
2020/12/07 17:36:24;;;;;;;23.52;13.75;;;4.70;99.90;;;;;;10251543;28;20061;-64
2020/12/07 17:41:25;;;;;;;22.67;12.75;;;4.70;99.90;;;;;;10249816;28;20105;-64
2020/12/07 17:46:27;;;;;;;30.05;19.15;;;4.60;99.90;;;;;;10255889;28;20049;-64
2020/12/07 17:51:28;;;;;;;27.52;16.38;;;4.60;99.90;;;;;;10251538;28;20050;-64
2020/12/07 17:56:30;;;;;;;24.85;14.55;;;4.60;99.90;;;;;;10251706;28;20050;-64
2020/12/07 18:01:32;;;;;;;24.02;14.00;;;4.70;99.90;;;;;;10257314;28;20051;-64
2020/12/07 18:06:33;;;;;;;20.77;13.10;;;4.70;99.90;;;;;;10259633;28;20047;-64
2020/12/07 18:11:35;;;;;;;24.55;14.52;;;4.80;99.90;;;;;;10258880;28;20125;-64
2020/12/07 18:16:36;;;;;;;24.48;14.32;;;4.70;99.90;;;;;;10262349;28;20486;-64
2020/12/07 18:21:38;;;;;;;26.05;15.70;;;4.70;99.90;;;;;;10255016;28;20054;-64
2020/12/07 18:26:39;;;;;;;24.42;14.35;;;4.80;99.90;;;;;;10261706;28;20049;-65
2020/12/07 18:31:42;;;;;;;28.85;15.52;;;4.80;99.90;;;;;;10258230;28;20043;-64
2020/12/07 18:36:45;;;;;;;27.27;16.85;;;4.80;99.90;;;;;;10259497;28;20056;-65
2020/12/07 18:41:47;;;;;;;26.40;15.55;;;4.80;99.90;;;;;;10263418;28;20082;-65
2020/12/07 18:46:49;;;;;;;29.55;17.33;;;4.80;99.90;;;;;;10262605;28;20915;-65
2020/12/07 18:52:00;;;;;;;27.67;15.57;;;4.80;99.90;;;;;;10265590;28;20057;-65
2020/12/07 18:57:02;;;;;;;28.58;17.42;;;4.90;99.90;;;;;;10261863;28;20045;-64
2020/12/07 19:02:03;;;;;;;34.40;17.70;;;4.90;99.90;;;;;;10262544;28;20050;-66
2020/12/07 19:07:06;;;;;;;26.65;16.27;;;4.90;99.90;;;;;;10265016;28;20050;-65
2020/12/07 19:12:07;;;;;;;27.85;15.13;;;4.80;99.90;;;;;;10260791;28;20062;-65
2020/12/07 19:17:09;;;;;;;26.70;15.77;;;4.80;99.90;;;;;;10256252;28;20114;-65
2020/12/07 19:22:10;;;;;;;26.42;14.95;;;4.80;99.90;;;;;;10261132;28;20074;-65
2020/12/07 19:27:13;;;;;;;23.48;13.55;;;4.80;99.90;;;;;;10257217;28;20078;-64
2020/12/07 19:32:14;;;;;;;24.17;13.70;;;4.80;99.90;;;;;;10260239;28;20402;-65
2020/12/07 19:37:16;;;;;;;30.25;17.17;;;4.80;99.90;;;;;;10257521;28;20900;-65
2020/12/07 19:42:20;;;;;;;25.80;14.55;;;4.80;99.90;;;;;;10256287;28;20059;-65
2020/12/07 19:47:22;;;;;;;29.63;15.85;;;4.80;99.90;;;;;;10253089;28;20061;-64
2020/12/07 19:52:24;;;;;;;24.73;14.45;;;4.80;99.90;;;;;;10257150;28;20512;-65
2020/12/07 19:57:31;;;;;;;22.92;14.52;;;4.80;99.90;;;;;;10254292;28;20074;-65
2020/12/07 20:02:33;;;;;;;;;;;4.80;99.90;;;;;;10257557;28;20046;-64
2020/12/07 20:07:35;;;;;;;24.40;14.20;;;4.80;99.90;;;;;;10259463;28;19933;-65
2020/12/07 20:12:36;;;;;;;25.38;14.43;;;4.80;99.90;;;;;;10259062;28;20535;-65
2020/12/07 20:17:38;;;;;;;26.85;14.60;;;4.70;99.90;;;;;;10258483;28;20070;-65
2020/12/07 20:22:39;;;;;;;26.70;13.32;;;4.70;99.90;;;;;;10254464;28;20047;-65
2020/12/07 20:27:41;;;;;;;25.25;14.48;;;4.70;99.90;;;;;;10257380;28;20050;-65
2020/12/07 20:32:42;;;;;;;23.83;14.45;;;4.70;99.90;;;;;;10261839;28;20054;-65
2020/12/07 20:37:43;;;;;;;22.88;14.27;;;4.70;99.90;;;;;;10254366;28;20714;-65
2020/12/07 20:42:45;;;;;;;21.38;12.88;;;4.70;99.90;;;;;;10261002;28;20058;-64
2020/12/07 20:47:47;;;;;;;24.95;14.82;;;4.70;99.90;;;;;;10254209;28;20583;-65
2020/12/07 20:52:48;;;;;;;21.20;12.68;;;4.70;99.90;;;;;;10257894;28;20057;-65
2020/12/07 20:57:49;;;;;;;17.77;11.48;;;4.70;99.90;;;;;;10253975;28;20125;-65
2020/12/07 21:02:51;;;;;;;22.25;13.48;;;4.70;99.90;;;;;;10250503;28;20047;-65
2020/12/07 21:07:53;;;;;;;21.08;11.70;;;4.70;99.90;;;;;;10251070;28;20051;-65
2020/12/07 21:12:55;;;;;;;21.90;13.05;;;4.70;99.90;;;;;;10249359;28;20050;-65
2020/12/07 21:17:57;;;;;;;23.10;13.13;;;4.70;99.90;;;;;;10255150;28;20101;-64
2020/12/07 21:22:58;;;;;;;21.48;12.73;;;4.60;99.90;;;;;;10246294;28;20122;-64
2020/12/07 21:28:00;;;;;;;18.55;12.27;;;4.60;99.90;;;;;;10252979;28;20051;-65
2020/12/07 21:33:02;;;;;;;22.05;13.52;;;4.60;99.90;;;;;;10251418;28;20070;-65
2020/12/07 21:38:03;;;;;;;17.95;12.45;;;4.70;99.90;;;;;;10240754;28;20102;-65
2020/12/07 21:43:04;;;;;;;17.90;10.93;;;4.60;99.90;;;;;;10244917;28;20062;-65
2020/12/07 21:48:06;;;;;;;20.08;11.93;;;4.70;99.90;;;;;;10248584;28;20198;-65
2020/12/07 21:53:07;;;;;;;22.33;13.18;;;4.60;99.90;;;;;;10247785;28;20043;-65
2020/12/07 21:58:08;;;;;;;21.13;14.52;;;4.60;99.90;;;;;;10255651;28;20058;-65
2020/12/07 22:03:10;;;;;;;21.63;13.95;;;4.60;99.90;;;;;;10247285;28;20058;-65
2020/12/07 22:08:11;;;;;;;22.38;12.48;;;4.60;99.90;;;;;;10248316;28;20058;-65
2020/12/07 22:13:12;;;;;;;20.98;13.18;;;4.60;99.90;;;;;;10257196;28;20592;-65
2020/12/07 22:18:13;;;;;;;19.95;12.18;;;4.60;99.90;;;;;;10259967;28;20137;-64
2020/12/07 22:23:15;;;;;;;19.23;11.25;;;4.60;99.90;;;;;;10244423;28;20050;-64
2020/12/07 22:28:16;;;;;;;22.73;14.82;;;4.60;99.90;;;;;;10243931;28;20051;-64
2020/12/07 22:33:17;;;;;;;21.17;12.88;;;4.50;99.90;;;;;;10240290;28;20051;-64
2020/12/07 22:38:19;;;;;;;21.10;12.95;;;4.50;99.90;;;;;;10245469;28;20429;-64
2020/12/07 22:43:20;;;;;;;20.48;12.30;;;4.60;99.90;;;;;;10260560;28;20059;-65
2020/12/07 22:48:21;;;;;;;19.48;11.55;;;4.50;99.90;;;;;;10248304;28;20065;-65
2020/12/07 22:53:23;;;;;;;18.42;11.73;;;4.50;99.90;;;;;;10248823;28;20489;-65
2020/12/07 22:58:24;;;;;;;19.00;12.80;;;4.50;99.90;;;;;;10254125;28;20050;-64
2020/12/07 23:03:25;;;;;;;19.02;11.98;;;4.50;99.90;;;;;;10251845;28;20162;-65
2020/12/07 23:08:26;;;;;;;20.67;12.88;;;4.50;99.90;;;;;;10249840;28;20051;-64
2020/12/07 23:13:28;;;;;;;19.63;12.80;;;4.40;99.90;;;;;;10254784;28;20074;-64
2020/12/07 23:18:29;;;;;;;17.40;11.70;;;4.40;99.90;;;;;;10251958;28;20055;-65
2020/12/07 23:23:30;;;;;;;19.58;12.27;;;4.40;99.90;;;;;;10257626;28;20133;-65
2020/12/07 23:28:33;;;;;;;21.42;13.63;;;4.40;99.90;;;;;;10263718;28;20517;-65
2020/12/07 23:33:34;;;;;;;20.58;13.55;;;4.40;99.90;;;;;;10252035;28;20051;-65
2020/12/07 23:38:36;;;;;;;21.92;13.93;;;4.40;99.90;;;;;;10249550;28;20051;-65
2020/12/07 23:43:37;;;;;;;22.63;12.95;;;4.30;99.90;;;;;;10251792;28;20051;-65
2020/12/07 23:48:39;;;;;;;21.88;13.50;;;4.30;99.90;;;;;;10249816;28;20054;-65
2020/12/07 23:53:40;;;;;;;20.52;11.48;;;4.30;99.90;;;;;;10249462;28;20061;-65
2020/12/07 23:58:41;;;;;;;23.70;13.63;;;4.30;99.90;;;;;;10253489;28;20097;-65
